Dunsford, Canada
Current Conditions -  °F | °C
As of 4:00 PM on Friday 31 Oct 2014 (Local Time) from CYPQ Reporting Station
Light Rain Light Rain  
Wind Chill: 32°   Ceiling: 800
Heat Index: 39°   Visibility: 9mi
Dew Point: 37°   Wind: 10mph
Humidity: 93%   Direction: 60°ENE
Pressure: 29.95"   Gusts: 20mph
Location:  44.45°N, 78.63°W
Report Text: CYPQ 312000Z AUTO 06009G17KT 9SM -RA OVC008 04/03 A2995 RMK SLP149
Loading
Personal Weather Stations






























Interactive Weather Map
Tropical Storm Tracking
New forecast layout! Learn more

10-Day Weather Forecast

Advertisements
Track Severe Weather on mobile